Terminal Aerodrome Forecast
Issued by NWS

Home | Current Version | Previous Version | Text Only | Print | Product List | Glossary On
Versions: 1 2 3 4 5 6 7 8 9 10 11 12 13
017
FTAK31 PAJN 262340
TAFASI
TAF
PASI 262340Z 2700/2724 11007KT P6SM -SHRA SCT030 OVC045
     FM270200 16009KT 6SM -RA BR OVC035
     FM270500 19012G19KT P6SM -SHRA BKN025 OVC040
     FM271400 12017G25KT 6SM -RA BR OVC035
      TEMPO 2715/2719 4SM RA BR OVC028
     FM272000 17015G22KT P6SM -SHRA OVC025=

USA.gov is the U.S. government's official web portal to all federal, state and local government web resources and services.